createdAt,value
2019-06-10T04:34:33.340Z,29.90
2019-06-10T04:37:29.585Z,30.00
2019-06-10T04:40:26.027Z,30.10
2019-06-10T04:43:23.010Z,29.80
2019-06-10T04:46:16.427Z,29.70
2019-06-10T04:49:12.946Z,29.70
2019-06-10T04:52:06.212Z,29.60
2019-06-10T04:55:02.505Z,29.60
2019-06-10T04:57:57.051Z,29.50
2019-06-10T05:00:53.719Z,29.50
2019-06-10T05:03:48.283Z,29.40
2019-06-10T05:06:42.161Z,29.50
2019-06-10T05:09:35.981Z,29.30
2019-06-10T05:12:29.916Z,29.40
2019-06-10T05:15:27.754Z,29.70
2019-06-10T05:18:19.562Z,30.30
2019-06-10T05:21:14.204Z,30.70
2019-06-10T05:24:07.730Z,31.00
2019-06-10T05:27:03.008Z,31.20
2019-06-10T05:29:59.310Z,31.40
2019-06-10T05:32:57.237Z,31.50
2019-06-10T05:35:53.435Z,31.60
2019-06-10T05:38:46.506Z,31.70
2019-06-10T05:41:40.135Z,31.70
2019-06-10T05:44:34.811Z,31.80
2019-06-10T05:47:29.846Z,31.90
2019-06-10T05:50:24.057Z,31.90
2019-06-10T05:53:17.399Z,32.00
2019-06-10T05:56:12.901Z,32.00
2019-06-10T05:59:07.169Z,32.10
2019-06-10T06:02:02.284Z,32.10
2019-06-10T06:04:56.373Z,32.10
2019-06-10T06:08:02.266Z,32.20
2019-06-10T06:10:45.511Z,32.20
2019-06-10T06:13:40.214Z,32.20
2019-06-10T06:16:38.282Z,32.20
2019-06-10T06:19:38.438Z,32.20
2019-06-10T06:22:34.372Z,32.20
2019-06-10T06:25:29.878Z,32.20
2019-06-10T06:28:23.335Z,32.30
2019-06-10T06:31:17.701Z,32.40
2019-06-10T06:34:15.355Z,32.40
2019-06-10T06:37:17.292Z,32.40
2019-06-10T06:40:16.877Z,32.40
2019-06-10T06:43:17.700Z,32.40
2019-06-10T06:46:23.138Z,32.50
2019-06-10T06:49:17.564Z,32.50
2019-06-10T06:52:13.325Z,32.50
2019-06-10T06:55:12.683Z,32.50
2019-06-10T06:58:07.821Z,32.50
2019-06-10T07:09:23.618Z,32.60
2019-06-10T07:12:47.737Z,32.60
2019-06-10T07:15:53.324Z,32.60
2019-06-10T07:22:46.318Z,32.60
2019-06-10T07:25:47.154Z,32.70
2019-06-10T07:28:40.817Z,32.70
2019-06-10T07:31:49.273Z,32.60
2019-06-10T07:34:46.757Z,32.70
2019-06-10T07:37:45.552Z,32.70
2019-06-10T07:40:47.819Z,32.70
2019-06-10T07:43:49.555Z,32.70
2019-06-10T07:46:41.667Z,32.70
2019-06-10T07:49:39.371Z,32.70
2019-06-10T07:52:46.594Z,32.70
2019-06-10T07:55:39.534Z,32.70
2019-06-10T07:58:37.217Z,32.80
2019-06-10T08:01:36.002Z,32.80
2019-06-10T08:04:29.297Z,32.80
2019-06-10T08:07:25.383Z,32.80
2019-06-10T08:10:23.258Z,32.80
2019-06-10T08:13:17.382Z,32.80
2019-06-10T08:16:13.072Z,32.80
2019-06-10T08:19:26.165Z,32.80
2019-06-10T08:22:04.000Z,32.50
2019-06-10T08:24:57.945Z,32.10
2019-06-10T08:27:53.137Z,31.90
2019-06-10T08:30:46.544Z,31.80
2019-06-10T08:33:45.415Z,31.90
2019-06-10T08:36:39.480Z,31.90
2019-06-10T08:39:34.667Z,31.80
2019-06-10T08:42:29.058Z,31.70
2019-06-10T08:45:24.751Z,31.90
2019-06-10T08:48:22.561Z,32.00
2019-06-10T08:51:19.897Z,32.10
2019-06-10T08:54:15.132Z,32.20
2019-06-10T08:57:09.185Z,32.30
2019-06-10T09:00:11.621Z,32.40
2019-06-10T09:03:05.560Z,32.40
2019-06-10T09:06:02.421Z,32.50
2019-06-10T09:08:54.717Z,32.50
2019-06-10T09:11:51.272Z,32.60
2019-06-10T09:14:46.764Z,32.50
2019-06-10T09:17:39.673Z,32.60
2019-06-10T09:20:33.269Z,32.60
2019-06-10T09:23:26.135Z,32.60
2019-06-10T09:26:22.690Z,32.60
2019-06-10T09:29:18.519Z,32.60
2019-06-10T09:32:12.474Z,32.70
2019-06-10T09:35:07.888Z,32.70
2019-06-10T09:38:08.481Z,32.70
2019-06-10T09:41:10.022Z,32.70
2019-06-10T09:44:04.026Z,32.70
2019-06-10T09:47:00.232Z,32.80
2019-06-10T09:49:55.515Z,32.80
2019-06-10T09:52:52.413Z,32.70
2019-06-10T09:55:49.113Z,32.80
2019-06-10T09:58:48.975Z,32.70
2019-06-10T10:01:47.301Z,32.70
2019-06-10T10:04:38.090Z,32.70
2019-06-10T10:07:33.895Z,32.70
2019-06-10T10:10:32.203Z,32.80
2019-06-10T10:13:25.056Z,32.70
2019-06-10T10:16:28.661Z,32.80
2019-06-10T10:19:23.141Z,32.80
2019-06-10T10:22:22.934Z,32.80
2019-06-10T10:25:19.844Z,32.80
2019-06-10T10:28:14.820Z,32.80
2019-06-10T10:31:07.991Z,32.80
2019-06-10T10:34:05.007Z,32.80
2019-06-10T10:37:02.732Z,32.80
2019-06-10T10:39:57.046Z,32.80
2019-06-10T10:43:01.546Z,32.90
2019-06-10T10:45:51.792Z,32.90
2019-06-10T10:48:47.076Z,32.90
2019-06-10T10:51:42.948Z,32.90
2019-06-10T10:54:37.083Z,32.90
2019-06-10T10:57:34.339Z,32.90
2019-06-10T11:00:36.486Z,32.90
2019-06-10T11:03:33.343Z,32.90
2019-06-10T11:06:27.842Z,32.90
2019-06-10T11:09:24.705Z,32.90
2019-06-10T11:12:19.254Z,32.90
2019-06-10T11:15:14.349Z,32.90
2019-06-10T11:18:12.614Z,32.90
2019-06-10T11:21:13.905Z,32.90
2019-06-10T11:24:14.508Z,32.90
2019-06-10T11:27:12.145Z,32.90
2019-06-10T11:30:05.868Z,32.90
2019-06-10T11:33:02.971Z,32.90
2019-06-10T11:35:58.009Z,33.00
2019-06-10T11:38:54.949Z,33.00
2019-06-10T11:41:50.889Z,33.00
2019-06-10T11:44:51.344Z,33.00
2019-06-10T11:47:49.297Z,33.00
2019-06-10T11:50:42.843Z,33.00
2019-06-10T11:53:36.926Z,33.00
2019-06-10T11:56:29.780Z,33.00
2019-06-10T11:59:22.918Z,32.90
2019-06-10T12:02:17.168Z,33.00
2019-06-10T12:05:12.847Z,33.00
2019-06-10T12:08:04.563Z,32.90
2019-06-10T12:11:02.268Z,32.90
2019-06-10T12:14:00.755Z,33.00
2019-06-10T12:19:53.842Z,32.90
2019-06-10T12:22:57.908Z,32.90
2019-06-10T12:25:55.932Z,33.00
2019-06-10T12:28:52.873Z,33.00
2019-06-10T12:31:44.676Z,32.90
2019-06-10T12:34:39.554Z,33.00
2019-06-10T12:37:39.084Z,32.90
2019-06-10T12:40:42.864Z,33.00
2019-06-10T12:43:37.198Z,32.90
2019-06-10T12:46:32.786Z,32.90
2019-06-10T12:49:26.283Z,32.90
2019-06-10T12:52:20.017Z,32.90
2019-06-10T12:55:13.782Z,32.90
2019-06-10T12:58:07.989Z,32.90
2019-06-10T13:01:04.490Z,32.90
2019-06-10T13:03:59.456Z,32.90
2019-06-10T13:06:55.825Z,32.90
2019-06-10T13:09:52.409Z,32.90
2019-06-10T13:12:48.898Z,32.90
2019-06-10T13:15:43.961Z,32.90
2019-06-10T13:18:37.442Z,32.90
2019-06-10T13:21:32.952Z,32.90
2019-06-10T13:24:28.864Z,32.90
2019-06-10T13:27:23.376Z,32.90
2019-06-10T13:30:18.647Z,32.90
2019-06-10T13:33:14.750Z,32.90
2019-06-10T13:36:09.248Z,32.90
2019-06-10T13:39:07.831Z,32.90
2019-06-10T13:41:59.729Z,32.90
2019-06-10T13:44:55.443Z,32.90
2019-06-10T13:47:53.175Z,32.90
2019-06-10T13:50:48.279Z,32.90
2019-06-10T13:53:42.617Z,32.90
2019-06-10T15:03:55.500Z,32.90
2019-06-10T15:06:49.823Z,32.90
2019-06-10T15:09:44.576Z,32.90
2019-06-10T15:12:38.664Z,32.90
2019-06-10T15:15:33.156Z,32.90
2019-06-10T15:18:27.434Z,32.90
2019-06-10T15:21:22.996Z,32.90
2019-06-10T15:24:18.093Z,32.90
2019-06-10T15:27:23.362Z,32.90
2019-06-10T15:30:20.756Z,32.90
2019-06-10T15:33:16.703Z,32.90
2019-06-10T15:36:09.459Z,32.90
2019-06-10T15:39:04.115Z,32.90
2019-06-10T15:41:59.464Z,32.90
2019-06-10T15:44:56.031Z,32.90
2019-06-10T15:47:52.974Z,32.90
2019-06-10T15:50:48.205Z,32.90
2019-06-10T15:53:43.134Z,32.90
2019-06-10T15:56:49.377Z,32.90
2019-06-10T15:59:35.593Z,32.90
2019-06-10T16:02:29.699Z,32.90
2019-06-10T16:05:25.301Z,32.90
2019-06-10T16:08:18.681Z,32.90
2019-06-10T16:11:16.325Z,32.90
2019-06-10T16:14:07.684Z,32.90
2019-06-10T16:17:03.170Z,32.90
2019-06-10T16:19:58.496Z,32.90
2019-06-10T16:22:52.847Z,32.90
2019-06-10T16:25:48.641Z,32.90
2019-06-10T16:28:43.518Z,32.90
2019-06-10T16:31:41.862Z,32.90
2019-06-10T16:34:35.971Z,32.90
